sensor_id;sensor_type;location;lat;lon;timestamp;P1;durP1;ratioP1;P2;durP2;ratioP2
20699;SDS011;10511;51.232;9.420;2023-02-12T00:00:20;1.03;;;1.03;;
20699;SDS011;10511;51.232;9.420;2023-02-12T00:02:48;1.00;;;1.00;;
20699;SDS011;10511;51.232;9.420;2023-02-12T00:05:15;0.97;;;0.97;;
20699;SDS011;10511;51.232;9.420;2023-02-12T00:07:42;1.03;;;1.03;;
20699;SDS011;10511;51.232;9.420;2023-02-12T00:10:09;1.00;;;1.00;;
20699;SDS011;10511;51.232;9.420;2023-02-12T00:12:37;1.00;;;1.00;;
20699;SDS011;10511;51.232;9.420;2023-02-12T00:15:05;1.00;;;1.00;;
20699;SDS011;10511;51.232;9.420;2023-02-12T00:17:33;1.10;;;1.10;;
20699;SDS011;10511;51.232;9.420;2023-02-12T00:20:00;1.10;;;1.10;;
20699;SDS011;10511;51.232;9.420;2023-02-12T00:22:27;1.10;;;1.10;;
20699;SDS011;10511;51.232;9.420;2023-02-12T00:24:54;1.10;;;1.10;;
20699;SDS011;10511;51.232;9.420;2023-02-12T00:27:21;1.10;;;1.10;;
20699;SDS011;10511;51.232;9.420;2023-02-12T00:29:49;1.20;;;1.20;;
20699;SDS011;10511;51.232;9.420;2023-02-12T00:32:17;1.10;;;1.10;;
20699;SDS011;10511;51.232;9.420;2023-02-12T00:34:44;1.10;;;1.10;;
20699;SDS011;10511;51.232;9.420;2023-02-12T00:37:11;1.10;;;1.10;;
20699;SDS011;10511;51.232;9.420;2023-02-12T00:39:38;1.10;;;1.10;;
20699;SDS011;10511;51.232;9.420;2023-02-12T00:42:05;1.20;;;1.20;;
20699;SDS011;10511;51.232;9.420;2023-02-12T00:44:32;1.20;;;1.20;;
20699;SDS011;10511;51.232;9.420;2023-02-12T00:46:59;1.13;;;1.13;;
20699;SDS011;10511;51.232;9.420;2023-02-12T00:49:28;1.10;;;1.10;;
20699;SDS011;10511;51.232;9.420;2023-02-12T00:51:58;1.10;;;1.10;;
20699;SDS011;10511;51.232;9.420;2023-02-12T00:54:25;1.17;;;1.17;;
20699;SDS011;10511;51.232;9.420;2023-02-12T00:56:52;1.13;;;1.13;;
20699;SDS011;10511;51.232;9.420;2023-02-12T00:59:19;1.07;;;1.07;;
20699;SDS011;10511;51.232;9.420;2023-02-12T01:01:46;1.10;;;1.10;;
20699;SDS011;10511;51.232;9.420;2023-02-12T01:04:13;1.10;;;1.10;;
20699;SDS011;10511;51.232;9.420;2023-02-12T01:06:42;1.23;;;1.23;;
20699;SDS011;10511;51.232;9.420;2023-02-12T01:09:09;1.20;;;1.20;;
20699;SDS011;10511;51.232;9.420;2023-02-12T01:11:35;1.20;;;1.20;;
20699;SDS011;10511;51.232;9.420;2023-02-12T01:14:02;1.17;;;1.17;;
20699;SDS011;10511;51.232;9.420;2023-02-12T01:16:29;1.20;;;1.20;;
20699;SDS011;10511;51.232;9.420;2023-02-12T01:18:57;1.30;;;1.30;;
20699;SDS011;10511;51.232;9.420;2023-02-12T01:21:26;1.37;;;1.37;;
20699;SDS011;10511;51.232;9.420;2023-02-12T01:23:56;1.20;;;1.20;;
20699;SDS011;10511;51.232;9.420;2023-02-12T01:26:23;1.20;;;1.20;;
20699;SDS011;10511;51.232;9.420;2023-02-12T01:28:51;1.10;;;1.10;;
20699;SDS011;10511;51.232;9.420;2023-02-12T01:31:20;1.20;;;1.20;;
20699;SDS011;10511;51.232;9.420;2023-02-12T01:33:49;1.20;;;1.20;;
20699;SDS011;10511;51.232;9.420;2023-02-12T01:36:17;1.20;;;1.20;;
20699;SDS011;10511;51.232;9.420;2023-02-12T01:38:44;1.20;;;1.20;;
20699;SDS011;10511;51.232;9.420;2023-02-12T01:41:14;1.10;;;1.10;;
20699;SDS011;10511;51.232;9.420;2023-02-12T01:43:43;1.10;;;1.10;;
20699;SDS011;10511;51.232;9.420;2023-02-12T01:46:11;1.10;;;1.10;;
20699;SDS011;10511;51.232;9.420;2023-02-12T01:48:40;1.10;;;1.10;;
20699;SDS011;10511;51.232;9.420;2023-02-12T01:51:10;1.00;;;1.00;;
20699;SDS011;10511;51.232;9.420;2023-02-12T01:53:42;1.00;;;1.00;;
20699;SDS011;10511;51.232;9.420;2023-02-12T01:56:15;1.07;;;1.07;;
20699;SDS011;10511;51.232;9.420;2023-02-12T01:58:43;1.10;;;1.10;;
20699;SDS011;10511;51.232;9.420;2023-02-12T02:01:12;1.00;;;1.00;;
20699;SDS011;10511;51.232;9.420;2023-02-12T02:03:43;1.00;;;1.00;;
20699;SDS011;10511;51.232;9.420;2023-02-12T02:06:13;0.97;;;0.97;;
20699;SDS011;10511;51.232;9.420;2023-02-12T02:08:42;1.00;;;1.00;;
20699;SDS011;10511;51.232;9.420;2023-02-12T02:11:09;1.00;;;1.00;;
20699;SDS011;10511;51.232;9.420;2023-02-12T02:13:51;1.00;;;1.00;;
20699;SDS011;10511;51.232;9.420;2023-02-12T02:16:36;1.00;;;1.00;;
20699;SDS011;10511;51.232;9.420;2023-02-12T02:19:08;1.00;;;1.00;;
20699;SDS011;10511;51.232;9.420;2023-02-12T02:21:50;0.90;;;0.90;;
20699;SDS011;10511;51.232;9.420;2023-02-12T02:24:52;1.07;;;1.07;;
20699;SDS011;10511;51.232;9.420;2023-02-12T02:27:38;1.00;;;1.00;;
20699;SDS011;10511;51.232;9.420;2023-02-12T02:30:13;1.00;;;1.00;;
20699;SDS011;10511;51.232;9.420;2023-02-12T02:32:51;1.00;;;1.00;;
20699;SDS011;10511;51.232;9.420;2023-02-12T02:35:28;1.00;;;1.00;;
20699;SDS011;10511;51.232;9.420;2023-02-12T02:38:02;1.00;;;1.00;;
20699;SDS011;10511;51.232;9.420;2023-02-12T02:40:39;1.00;;;1.00;;
20699;SDS011;10511;51.232;9.420;2023-02-12T02:43:14;1.00;;;1.00;;
20699;SDS011;10511;51.232;9.420;2023-02-12T02:45:46;1.00;;;1.00;;
20699;SDS011;10511;51.232;9.420;2023-02-12T02:48:16;1.00;;;1.00;;
20699;SDS011;10511;51.232;9.420;2023-02-12T02:50:48;1.00;;;1.00;;
20699;SDS011;10511;51.232;9.420;2023-02-12T02:53:18;1.10;;;1.10;;
20699;SDS011;10511;51.232;9.420;2023-02-12T02:55:49;1.10;;;1.10;;
20699;SDS011;10511;51.232;9.420;2023-02-12T02:58:20;1.00;;;1.00;;
20699;SDS011;10511;51.232;9.420;2023-02-12T03:00:52;1.00;;;1.00;;
20699;SDS011;10511;51.232;9.420;2023-02-12T03:03:25;1.10;;;1.10;;
20699;SDS011;10511;51.232;9.420;2023-02-12T03:05:58;1.00;;;1.00;;
20699;SDS011;10511;51.232;9.420;2023-02-12T03:08:30;1.00;;;1.00;;
20699;SDS011;10511;51.232;9.420;2023-02-12T03:11:02;1.00;;;1.00;;
20699;SDS011;10511;51.232;9.420;2023-02-12T03:13:36;1.10;;;1.10;;
20699;SDS011;10511;51.232;9.420;2023-02-12T03:16:10;1.10;;;1.10;;
20699;SDS011;10511;51.232;9.420;2023-02-12T03:18:42;1.10;;;1.10;;
20699;SDS011;10511;51.232;9.420;2023-02-12T03:21:17;1.00;;;1.00;;
20699;SDS011;10511;51.232;9.420;2023-02-12T03:23:51;1.10;;;1.10;;
20699;SDS011;10511;51.232;9.420;2023-02-12T03:26:24;1.10;;;1.10;;
20699;SDS011;10511;51.232;9.420;2023-02-12T03:28:56;1.00;;;1.00;;
20699;SDS011;10511;51.232;9.420;2023-02-12T03:31:26;1.10;;;1.10;;
20699;SDS011;10511;51.232;9.420;2023-02-12T03:34:01;1.10;;;1.10;;
20699;SDS011;10511;51.232;9.420;2023-02-12T03:36:36;1.10;;;1.10;;
20699;SDS011;10511;51.232;9.420;2023-02-12T03:39:10;1.00;;;1.00;;
20699;SDS011;10511;51.232;9.420;2023-02-12T03:41:42;1.10;;;1.10;;
20699;SDS011;10511;51.232;9.420;2023-02-12T03:44:16;1.13;;;1.13;;
20699;SDS011;10511;51.232;9.420;2023-02-12T03:46:53;1.10;;;1.10;;
20699;SDS011;10511;51.232;9.420;2023-02-12T03:49:26;1.10;;;1.10;;
20699;SDS011;10511;51.232;9.420;2023-02-12T03:51:57;1.20;;;1.20;;
20699;SDS011;10511;51.232;9.420;2023-02-12T03:54:24;1.10;;;1.10;;
20699;SDS011;10511;51.232;9.420;2023-02-12T03:56:52;1.10;;;1.10;;
20699;SDS011;10511;51.232;9.420;2023-02-12T03:59:23;1.20;;;1.20;;
20699;SDS011;10511;51.232;9.420;2023-02-12T04:01:53;1.17;;;1.17;;
20699;SDS011;10511;51.232;9.420;2023-02-12T04:04:23;1.10;;;1.10;;
20699;SDS011;10511;51.232;9.420;2023-02-12T04:06:50;1.10;;;1.10;;
20699;SDS011;10511;51.232;9.420;2023-02-12T04:09:19;1.10;;;1.10;;
20699;SDS011;10511;51.232;9.420;2023-02-12T04:11:53;1.00;;;1.00;;
20699;SDS011;10511;51.232;9.420;2023-02-12T04:14:40;1.10;;;1.10;;
20699;SDS011;10511;51.232;9.420;2023-02-12T04:17:19;1.10;;;1.10;;
20699;SDS011;10511;51.232;9.420;2023-02-12T04:19:54;1.07;;;1.07;;
20699;SDS011;10511;51.232;9.420;2023-02-12T04:22:34;1.10;;;1.10;;
20699;SDS011;10511;51.232;9.420;2023-02-12T04:25:14;1.10;;;1.10;;
20699;SDS011;10511;51.232;9.420;2023-02-12T04:27:48;1.00;;;1.00;;
20699;SDS011;10511;51.232;9.420;2023-02-12T04:30:23;1.00;;;1.00;;
20699;SDS011;10511;51.232;9.420;2023-02-12T04:32:56;1.10;;;1.10;;
20699;SDS011;10511;51.232;9.420;2023-02-12T04:35:28;1.10;;;1.10;;
20699;SDS011;10511;51.232;9.420;2023-02-12T04:38:00;1.00;;;1.00;;
20699;SDS011;10511;51.232;9.420;2023-02-12T04:40:33;0.90;;;0.90;;
20699;SDS011;10511;51.232;9.420;2023-02-12T04:43:01;1.00;;;1.00;;
20699;SDS011;10511;51.232;9.420;2023-02-12T04:45:28;1.00;;;1.00;;
20699;SDS011;10511;51.232;9.420;2023-02-12T04:47:58;1.00;;;1.00;;
20699;SDS011;10511;51.232;9.420;2023-02-12T04:50:25;1.10;;;1.10;;
20699;SDS011;10511;51.232;9.420;2023-02-12T04:52:56;1.00;;;1.00;;
20699;SDS011;10511;51.232;9.420;2023-02-12T04:55:22;1.00;;;1.00;;
20699;SDS011;10511;51.232;9.420;2023-02-12T04:57:49;1.00;;;1.00;;
20699;SDS011;10511;51.232;9.420;2023-02-12T05:00:16;1.00;;;1.00;;
20699;SDS011;10511;51.232;9.420;2023-02-12T05:02:43;1.00;;;1.00;;
20699;SDS011;10511;51.232;9.420;2023-02-12T05:05:12;1.00;;;1.00;;
20699;SDS011;10511;51.232;9.420;2023-02-12T05:07:39;1.00;;;1.00;;
20699;SDS011;10511;51.232;9.420;2023-02-12T05:10:06;1.00;;;1.00;;
20699;SDS011;10511;51.232;9.420;2023-02-12T05:12:33;1.00;;;1.00;;
20699;SDS011;10511;51.232;9.420;2023-02-12T05:15:00;1.00;;;1.00;;
20699;SDS011;10511;51.232;9.420;2023-02-12T05:17:27;1.00;;;1.00;;
20699;SDS011;10511;51.232;9.420;2023-02-12T05:19:54;0.90;;;0.90;;
20699;SDS011;10511;51.232;9.420;2023-02-12T05:22:22;0.90;;;0.90;;
20699;SDS011;10511;51.232;9.420;2023-02-12T05:24:49;0.90;;;0.90;;
20699;SDS011;10511;51.232;9.420;2023-02-12T05:27:16;1.00;;;1.00;;
20699;SDS011;10511;51.232;9.420;2023-02-12T05:29:43;1.00;;;1.00;;
20699;SDS011;10511;51.232;9.420;2023-02-12T05:32:10;1.20;;;1.20;;
20699;SDS011;10511;51.232;9.420;2023-02-12T05:34:36;1.03;;;1.03;;
20699;SDS011;10511;51.232;9.420;2023-02-12T05:37:03;1.10;;;1.10;;
20699;SDS011;10511;51.232;9.420;2023-02-12T05:39:32;1.10;;;1.10;;
20699;SDS011;10511;51.232;9.420;2023-02-12T05:41:58;1.00;;;1.00;;
20699;SDS011;10511;51.232;9.420;2023-02-12T05:44:25;1.00;;;1.00;;
20699;SDS011;10511;51.232;9.420;2023-02-12T05:46:52;1.10;;;1.10;;
20699;SDS011;10511;51.232;9.420;2023-02-12T05:49:19;1.00;;;1.00;;
20699;SDS011;10511;51.232;9.420;2023-02-12T05:51:46;1.10;;;1.10;;
20699;SDS011;10511;51.232;9.420;2023-02-12T05:54:13;1.10;;;1.10;;
20699;SDS011;10511;51.232;9.420;2023-02-12T05:56:42;1.10;;;1.10;;
20699;SDS011;10511;51.232;9.420;2023-02-12T05:59:12;1.00;;;1.00;;
20699;SDS011;10511;51.232;9.420;2023-02-12T06:01:41;1.00;;;1.00;;
20699;SDS011;10511;51.232;9.420;2023-02-12T06:04:10;1.00;;;1.00;;
20699;SDS011;10511;51.232;9.420;2023-02-12T06:06:39;1.10;;;1.10;;
20699;SDS011;10511;51.232;9.420;2023-02-12T06:09:07;1.10;;;1.10;;
20699;SDS011;10511;51.232;9.420;2023-02-12T06:11:34;1.10;;;1.10;;
20699;SDS011;10511;51.232;9.420;2023-02-12T06:14:02;1.10;;;1.10;;
20699;SDS011;10511;51.232;9.420;2023-02-12T06:16:30;1.10;;;1.10;;
20699;SDS011;10511;51.232;9.420;2023-02-12T06:18:57;1.20;;;1.20;;
20699;SDS011;10511;51.232;9.420;2023-02-12T06:21:26;1.00;;;1.00;;
20699;SDS011;10511;51.232;9.420;2023-02-12T06:23:54;1.10;;;1.10;;
20699;SDS011;10511;51.232;9.420;2023-02-12T06:26:21;1.20;;;1.20;;
20699;SDS011;10511;51.232;9.420;2023-02-12T06:28:48;1.10;;;1.10;;
20699;SDS011;10511;51.232;9.420;2023-02-12T06:31:18;1.10;;;1.10;;
20699;SDS011;10511;51.232;9.420;2023-02-12T06:33:46;1.10;;;1.10;;
20699;SDS011;10511;51.232;9.420;2023-02-12T06:36:13;1.07;;;1.07;;
20699;SDS011;10511;51.232;9.420;2023-02-12T06:38:40;1.10;;;1.10;;
20699;SDS011;10511;51.232;9.420;2023-02-12T06:41:07;1.00;;;1.00;;
20699;SDS011;10511;51.232;9.420;2023-02-12T06:43:34;1.10;;;1.10;;
20699;SDS011;10511;51.232;9.420;2023-02-12T06:46:02;1.00;;;1.00;;
20699;SDS011;10511;51.232;9.420;2023-02-12T06:48:31;1.00;;;1.00;;
20699;SDS011;10511;51.232;9.420;2023-02-12T06:51:02;1.10;;;1.10;;
20699;SDS011;10511;51.232;9.420;2023-02-12T06:53:29;1.00;;;1.00;;
20699;SDS011;10511;51.232;9.420;2023-02-12T06:55:58;1.00;;;1.00;;
20699;SDS011;10511;51.232;9.420;2023-02-12T06:58:25;1.10;;;1.10;;
20699;SDS011;10511;51.232;9.420;2023-02-12T07:00:52;1.00;;;1.00;;
20699;SDS011;10511;51.232;9.420;2023-02-12T07:03:19;1.00;;;1.00;;
20699;SDS011;10511;51.232;9.420;2023-02-12T07:05:47;1.00;;;1.00;;
20699;SDS011;10511;51.232;9.420;2023-02-12T07:08:14;1.00;;;1.00;;
20699;SDS011;10511;51.232;9.420;2023-02-12T07:10:41;0.90;;;0.90;;
20699;SDS011;10511;51.232;9.420;2023-02-12T07:13:08;1.00;;;1.00;;
20699;SDS011;10511;51.232;9.420;2023-02-12T07:15:37;0.97;;;0.97;;
20699;SDS011;10511;51.232;9.420;2023-02-12T07:18:04;1.00;;;1.00;;
20699;SDS011;10511;51.232;9.420;2023-02-12T07:20:31;1.00;;;1.00;;
20699;SDS011;10511;51.232;9.420;2023-02-12T07:22:59;1.00;;;1.00;;
20699;SDS011;10511;51.232;9.420;2023-02-12T07:25:26;1.20;;;1.20;;
20699;SDS011;10511;51.232;9.420;2023-02-12T07:27:53;1.10;;;1.10;;
20699;SDS011;10511;51.232;9.420;2023-02-12T07:30:20;1.00;;;1.00;;
20699;SDS011;10511;51.232;9.420;2023-02-12T07:32:47;1.00;;;1.00;;
20699;SDS011;10511;51.232;9.420;2023-02-12T07:35:14;0.90;;;0.90;;
20699;SDS011;10511;51.232;9.420;2023-02-12T07:37:40;1.10;;;1.10;;
20699;SDS011;10511;51.232;9.420;2023-02-12T07:40:09;1.07;;;1.07;;
20699;SDS011;10511;51.232;9.420;2023-02-12T07:42:36;1.07;;;1.07;;
20699;SDS011;10511;51.232;9.420;2023-02-12T07:45:03;1.00;;;1.00;;
20699;SDS011;10511;51.232;9.420;2023-02-12T07:47:31;1.00;;;1.00;;
20699;SDS011;10511;51.232;9.420;2023-02-12T07:49:59;1.00;;;1.00;;
20699;SDS011;10511;51.232;9.420;2023-02-12T07:52:26;1.00;;;1.00;;
20699;SDS011;10511;51.232;9.420;2023-02-12T07:54:53;1.00;;;1.00;;
20699;SDS011;10511;51.232;9.420;2023-02-12T07:57:21;1.03;;;1.03;;
20699;SDS011;10511;51.232;9.420;2023-02-12T07:59:48;1.20;;;1.20;;
20699;SDS011;10511;51.232;9.420;2023-02-12T08:02:15;1.10;;;1.10;;
20699;SDS011;10511;51.232;9.420;2023-02-12T08:04:42;1.10;;;1.10;;
20699;SDS011;10511;51.232;9.420;2023-02-12T08:07:08;1.00;;;1.00;;
20699;SDS011;10511;51.232;9.420;2023-02-12T08:09:35;1.10;;;1.10;;
20699;SDS011;10511;51.232;9.420;2023-02-12T08:12:02;1.10;;;1.10;;
20699;SDS011;10511;51.232;9.420;2023-02-12T08:14:30;1.00;;;1.00;;
20699;SDS011;10511;51.232;9.420;2023-02-12T08:16:57;1.00;;;1.00;;
20699;SDS011;10511;51.232;9.420;2023-02-12T08:19:24;1.00;;;1.00;;
20699;SDS011;10511;51.232;9.420;2023-02-12T08:21:51;1.03;;;1.03;;
20699;SDS011;10511;51.232;9.420;2023-02-12T08:24:19;1.00;;;1.00;;
20699;SDS011;10511;51.232;9.420;2023-02-12T08:26:46;1.00;;;1.00;;
20699;SDS011;10511;51.232;9.420;2023-02-12T08:29:15;1.00;;;1.00;;
20699;SDS011;10511;51.232;9.420;2023-02-12T08:31:45;1.10;;;1.10;;
20699;SDS011;10511;51.232;9.420;2023-02-12T08:34:15;1.00;;;1.00;;
20699;SDS011;10511;51.232;9.420;2023-02-12T08:36:43;1.00;;;1.00;;
20699;SDS011;10511;51.232;9.420;2023-02-12T08:39:12;1.00;;;1.00;;
20699;SDS011;10511;51.232;9.420;2023-02-12T08:41:39;0.90;;;0.90;;
20699;SDS011;10511;51.232;9.420;2023-02-12T08:44:07;1.00;;;1.00;;
20699;SDS011;10511;51.232;9.420;2023-02-12T08:46:36;0.90;;;0.90;;
20699;SDS011;10511;51.232;9.420;2023-02-12T08:49:06;1.00;;;1.00;;
20699;SDS011;10511;51.232;9.420;2023-02-12T08:51:34;1.00;;;1.00;;
20699;SDS011;10511;51.232;9.420;2023-02-12T08:54:04;1.00;;;1.00;;
20699;SDS011;10511;51.232;9.420;2023-02-12T08:56:34;1.00;;;1.00;;
20699;SDS011;10511;51.232;9.420;2023-02-12T08:59:02;1.00;;;1.00;;
20699;SDS011;10511;51.232;9.420;2023-02-12T09:01:33;1.00;;;1.00;;
20699;SDS011;10511;51.232;9.420;2023-02-12T09:04:02;0.90;;;0.90;;
20699;SDS011;10511;51.232;9.420;2023-02-12T09:06:31;1.00;;;1.00;;
20699;SDS011;10511;51.232;9.420;2023-02-12T09:08:59;0.90;;;0.90;;
20699;SDS011;10511;51.232;9.420;2023-02-12T09:11:27;0.90;;;0.90;;
20699;SDS011;10511;51.232;9.420;2023-02-12T09:13:56;1.00;;;1.00;;
20699;SDS011;10511;51.232;9.420;2023-02-12T09:16:24;1.00;;;1.00;;
20699;SDS011;10511;51.232;9.420;2023-02-12T09:18:52;1.00;;;1.00;;
20699;SDS011;10511;51.232;9.420;2023-02-12T09:21:19;0.93;;;0.93;;
20699;SDS011;10511;51.232;9.420;2023-02-12T09:23:48;1.00;;;1.00;;
20699;SDS011;10511;51.232;9.420;2023-02-12T09:26:16;0.90;;;0.90;;
20699;SDS011;10511;51.232;9.420;2023-02-12T09:28:45;0.90;;;0.90;;
20699;SDS011;10511;51.232;9.420;2023-02-12T09:31:14;1.00;;;1.00;;
20699;SDS011;10511;51.232;9.420;2023-02-12T09:33:42;0.90;;;0.90;;
20699;SDS011;10511;51.232;9.420;2023-02-12T09:36:10;0.90;;;0.90;;
20699;SDS011;10511;51.232;9.420;2023-02-12T09:38:41;1.07;;;1.07;;
20699;SDS011;10511;51.232;9.420;2023-02-12T09:41:17;1.00;;;1.00;;
20699;SDS011;10511;51.232;9.420;2023-02-12T09:44:05;1.00;;;1.00;;
20699;SDS011;10511;51.232;9.420;2023-02-12T09:47:02;0.90;;;0.90;;
20699;SDS011;10511;51.232;9.420;2023-02-12T09:49:40;0.90;;;0.90;;
20699;SDS011;10511;51.232;9.420;2023-02-12T09:52:28;0.90;;;0.90;;
20699;SDS011;10511;51.232;9.420;2023-02-12T09:55:01;0.90;;;0.90;;
20699;SDS011;10511;51.232;9.420;2023-02-12T09:57:32;1.00;;;1.00;;
20699;SDS011;10511;51.232;9.420;2023-02-12T10:00:05;1.00;;;1.00;;
20699;SDS011;10511;51.232;9.420;2023-02-12T10:02:41;0.90;;;0.90;;
20699;SDS011;10511;51.232;9.420;2023-02-12T10:05:14;0.97;;;0.97;;
20699;SDS011;10511;51.232;9.420;2023-02-12T10:07:55;0.93;;;0.93;;
20699;SDS011;10511;51.232;9.420;2023-02-12T10:10:39;0.90;;;0.90;;
20699;SDS011;10511;51.232;9.420;2023-02-12T10:13:22;0.90;;;0.90;;
20699;SDS011;10511;51.232;9.420;2023-02-12T10:16:07;1.00;;;1.00;;
20699;SDS011;10511;51.232;9.420;2023-02-12T10:18:43;0.90;;;0.90;;
20699;SDS011;10511;51.232;9.420;2023-02-12T10:21:23;0.90;;;0.90;;
20699;SDS011;10511;51.232;9.420;2023-02-12T10:24:05;0.97;;;0.97;;
20699;SDS011;10511;51.232;9.420;2023-02-12T10:26:56;0.90;;;0.90;;
20699;SDS011;10511;51.232;9.420;2023-02-12T10:29:28;0.90;;;0.90;;
20699;SDS011;10511;51.232;9.420;2023-02-12T10:31:59;0.90;;;0.90;;
20699;SDS011;10511;51.232;9.420;2023-02-12T10:34:31;0.90;;;0.90;;
20699;SDS011;10511;51.232;9.420;2023-02-12T10:37:01;0.90;;;0.90;;
20699;SDS011;10511;51.232;9.420;2023-02-12T10:39:30;0.87;;;0.87;;
20699;SDS011;10511;51.232;9.420;2023-02-12T10:42:02;0.90;;;0.90;;
20699;SDS011;10511;51.232;9.420;2023-02-12T10:44:35;0.90;;;0.90;;
20699;SDS011;10511;51.232;9.420;2023-02-12T10:47:02;0.90;;;0.90;;
20699;SDS011;10511;51.232;9.420;2023-02-12T10:49:30;0.90;;;0.90;;
20699;SDS011;10511;51.232;9.420;2023-02-12T10:51:59;0.90;;;0.90;;
20699;SDS011;10511;51.232;9.420;2023-02-12T10:54:34;0.90;;;0.90;;
20699;SDS011;10511;51.232;9.420;2023-02-12T10:57:05;1.00;;;1.00;;
20699;SDS011;10511;51.232;9.420;2023-02-12T10:59:37;1.00;;;1.00;;
20699;SDS011;10511;51.232;9.420;2023-02-12T11:02:13;0.90;;;0.90;;
20699;SDS011;10511;51.232;9.420;2023-02-12T11:04:48;1.10;;;1.10;;
20699;SDS011;10511;51.232;9.420;2023-02-12T11:07:16;0.90;;;0.90;;
20699;SDS011;10511;51.232;9.420;2023-02-12T11:09:43;0.90;;;0.90;;
20699;SDS011;10511;51.232;9.420;2023-02-12T11:12:16;0.87;;;0.87;;
20699;SDS011;10511;51.232;9.420;2023-02-12T11:14:53;1.00;;;1.00;;
20699;SDS011;10511;51.232;9.420;2023-02-12T11:17:24;1.00;;;1.00;;
20699;SDS011;10511;51.232;9.420;2023-02-12T11:20:02;1.00;;;1.00;;
20699;SDS011;10511;51.232;9.420;2023-02-12T11:22:34;0.90;;;0.90;;
20699;SDS011;10511;51.232;9.420;2023-02-12T11:25:07;1.00;;;1.00;;
20699;SDS011;10511;51.232;9.420;2023-02-12T11:27:40;0.90;;;0.90;;
20699;SDS011;10511;51.232;9.420;2023-02-12T11:30:17;1.00;;;1.00;;
20699;SDS011;10511;51.232;9.420;2023-02-12T11:32:45;0.90;;;0.90;;
20699;SDS011;10511;51.232;9.420;2023-02-12T11:35:14;1.00;;;1.00;;
20699;SDS011;10511;51.232;9.420;2023-02-12T11:37:49;1.00;;;1.00;;
20699;SDS011;10511;51.232;9.420;2023-02-12T11:40:18;0.90;;;0.90;;
20699;SDS011;10511;51.232;9.420;2023-02-12T11:42:48;0.90;;;0.90;;
20699;SDS011;10511;51.232;9.420;2023-02-12T11:45:19;0.90;;;0.90;;
20699;SDS011;10511;51.232;9.420;2023-02-12T11:47:51;0.93;;;0.93;;
20699;SDS011;10511;51.232;9.420;2023-02-12T11:50:21;0.90;;;0.90;;
20699;SDS011;10511;51.232;9.420;2023-02-12T11:52:52;1.00;;;1.00;;
20699;SDS011;10511;51.232;9.420;2023-02-12T11:55:23;1.00;;;1.00;;
20699;SDS011;10511;51.232;9.420;2023-02-12T11:57:51;1.00;;;1.00;;
20699;SDS011;10511;51.232;9.420;2023-02-12T12:00:23;1.10;;;1.10;;
20699;SDS011;10511;51.232;9.420;2023-02-12T12:02:55;0.90;;;0.90;;
20699;SDS011;10511;51.232;9.420;2023-02-12T12:05:28;0.93;;;0.93;;
20699;SDS011;10511;51.232;9.420;2023-02-12T12:07:58;0.90;;;0.90;;
20699;SDS011;10511;51.232;9.420;2023-02-12T12:10:30;1.00;;;1.00;;
20699;SDS011;10511;51.232;9.420;2023-02-12T12:13:03;1.00;;;1.00;;
20699;SDS011;10511;51.232;9.420;2023-02-12T12:15:36;1.00;;;1.00;;
20699;SDS011;10511;51.232;9.420;2023-02-12T12:18:28;0.90;;;0.90;;
20699;SDS011;10511;51.232;9.420;2023-02-12T12:21:17;1.00;;;1.00;;
20699;SDS011;10511;51.232;9.420;2023-02-12T12:23:50;0.90;;;0.90;;
20699;SDS011;10511;51.232;9.420;2023-02-12T12:26:22;1.10;;;1.10;;
20699;SDS011;10511;51.232;9.420;2023-02-12T12:28:51;1.03;;;1.03;;
20699;SDS011;10511;51.232;9.420;2023-02-12T12:31:27;1.00;;;1.00;;
20699;SDS011;10511;51.232;9.420;2023-02-12T12:33:59;1.00;;;1.00;;
20699;SDS011;10511;51.232;9.420;2023-02-12T12:36:35;1.00;;;1.00;;
20699;SDS011;10511;51.232;9.420;2023-02-12T12:39:32;1.10;;;1.10;;
20699;SDS011;10511;51.232;9.420;2023-02-12T12:42:07;1.00;;;1.00;;
20699;SDS011;10511;51.232;9.420;2023-02-12T12:44:58;0.90;;;0.90;;
20699;SDS011;10511;51.232;9.420;2023-02-12T12:47:39;1.00;;;1.00;;
20699;SDS011;10511;51.232;9.420;2023-02-12T12:50:20;0.90;;;0.90;;
20699;SDS011;10511;51.232;9.420;2023-02-12T12:52:59;0.90;;;0.90;;
20699;SDS011;10511;51.232;9.420;2023-02-12T12:55:39;0.90;;;0.90;;
20699;SDS011;10511;51.232;9.420;2023-02-12T12:58:29;0.90;;;0.90;;
20699;SDS011;10511;51.232;9.420;2023-02-12T13:01:05;0.80;;;0.80;;
20699;SDS011;10511;51.232;9.420;2023-02-12T13:04:01;1.00;;;1.00;;
20699;SDS011;10511;51.232;9.420;2023-02-12T13:07:00;1.00;;;1.00;;
20699;SDS011;10511;51.232;9.420;2023-02-12T13:09:45;0.90;;;0.90;;
20699;SDS011;10511;51.232;9.420;2023-02-12T13:12:31;1.00;;;1.00;;
20699;SDS011;10511;51.232;9.420;2023-02-12T13:15:05;0.90;;;0.90;;
20699;SDS011;10511;51.232;9.420;2023-02-12T13:17:41;0.90;;;0.90;;
20699;SDS011;10511;51.232;9.420;2023-02-12T13:20:15;0.80;;;0.80;;
20699;SDS011;10511;51.232;9.420;2023-02-12T13:22:49;0.90;;;0.90;;
20699;SDS011;10511;51.232;9.420;2023-02-12T13:25:22;0.90;;;0.90;;
20699;SDS011;10511;51.232;9.420;2023-02-12T13:27:55;0.90;;;0.90;;
20699;SDS011;10511;51.232;9.420;2023-02-12T13:30:26;0.90;;;0.90;;
20699;SDS011;10511;51.232;9.420;2023-02-12T13:33:00;0.90;;;0.90;;
20699;SDS011;10511;51.232;9.420;2023-02-12T13:35:34;1.00;;;1.00;;
20699;SDS011;10511;51.232;9.420;2023-02-12T13:41:18;0.97;;;0.97;;
20699;SDS011;10511;51.232;9.420;2023-02-12T13:43:53;1.00;;;1.00;;
20699;SDS011;10511;51.232;9.420;2023-02-12T13:46:30;0.90;;;0.90;;
20699;SDS011;10511;51.232;9.420;2023-02-12T13:49:08;0.90;;;0.90;;
20699;SDS011;10511;51.232;9.420;2023-02-12T13:51:43;0.90;;;0.90;;
20699;SDS011;10511;51.232;9.420;2023-02-12T13:54:19;0.90;;;0.90;;
20699;SDS011;10511;51.232;9.420;2023-02-12T13:56:55;0.90;;;0.90;;
20699;SDS011;10511;51.232;9.420;2023-02-12T13:59:38;0.90;;;0.90;;
20699;SDS011;10511;51.232;9.420;2023-02-12T14:07:53;0.97;;;0.97;;
20699;SDS011;10511;51.232;9.420;2023-02-12T14:10:22;0.90;;;0.90;;
20699;SDS011;10511;51.232;9.420;2023-02-12T14:12:52;0.90;;;0.90;;
20699;SDS011;10511;51.232;9.420;2023-02-12T14:15:27;0.90;;;0.90;;
20699;SDS011;10511;51.232;9.420;2023-02-12T14:18:03;1.00;;;1.00;;
20699;SDS011;10511;51.232;9.420;2023-02-12T14:20:32;1.00;;;1.00;;
20699;SDS011;10511;51.232;9.420;2023-02-12T14:23:03;0.90;;;0.90;;
20699;SDS011;10511;51.232;9.420;2023-02-12T14:25:54;0.90;;;0.90;;
20699;SDS011;10511;51.232;9.420;2023-02-12T14:28:29;0.90;;;0.90;;
20699;SDS011;10511;51.232;9.420;2023-02-12T14:31:21;0.90;;;0.90;;
20699;SDS011;10511;51.232;9.420;2023-02-12T14:37:17;0.90;;;0.90;;
20699;SDS011;10511;51.232;9.420;2023-02-12T14:43:22;1.00;;;1.00;;
20699;SDS011;10511;51.232;9.420;2023-02-12T14:45:55;0.90;;;0.90;;
20699;SDS011;10511;51.232;9.420;2023-02-12T14:48:41;1.00;;;1.00;;
20699;SDS011;10511;51.232;9.420;2023-02-12T14:51:18;1.00;;;1.00;;
20699;SDS011;10511;51.232;9.420;2023-02-12T14:53:48;1.00;;;1.00;;
20699;SDS011;10511;51.232;9.420;2023-02-12T14:56:21;0.90;;;0.90;;
20699;SDS011;10511;51.232;9.420;2023-02-12T14:58:48;0.90;;;0.90;;
20699;SDS011;10511;51.232;9.420;2023-02-12T15:01:17;0.90;;;0.90;;
20699;SDS011;10511;51.232;9.420;2023-02-12T15:03:54;1.00;;;1.00;;
20699;SDS011;10511;51.232;9.420;2023-02-12T15:06:26;0.90;;;0.90;;
20699;SDS011;10511;51.232;9.420;2023-02-12T15:09:02;0.90;;;0.90;;
20699;SDS011;10511;51.232;9.420;2023-02-12T15:11:37;0.93;;;0.93;;
20699;SDS011;10511;51.232;9.420;2023-02-12T15:14:11;0.90;;;0.90;;
20699;SDS011;10511;51.232;9.420;2023-02-12T15:16:46;0.90;;;0.90;;
20699;SDS011;10511;51.232;9.420;2023-02-12T15:19:21;0.90;;;0.90;;
20699;SDS011;10511;51.232;9.420;2023-02-12T15:21:56;1.00;;;1.00;;
20699;SDS011;10511;51.232;9.420;2023-02-12T15:24:24;0.90;;;0.90;;
20699;SDS011;10511;51.232;9.420;2023-02-12T15:26:53;0.90;;;0.90;;
20699;SDS011;10511;51.232;9.420;2023-02-12T15:29:23;0.90;;;0.90;;